KBIH/BIH METAR and TAF weather

Enter ICAO airport designator
Station Type Date Time Source
KBIH METAR 2021/10/20 06:56 UTC NOAA

KBIH 200656Z AUTO 16005G17KT 10SM CLR 12/M07 A3007 RMK AO2 SLP154 T01171072


Station Type Date Time Source
KBIH Decoded METAR 2021/10/20 06:56 UTC NOAA

BISHOP AIRPORT, CA, United States (KBIH) 37-22N 118-22W 1253M
Oct 20, 2021 - 02:56 AM EDT / 2021.10.20 0656 UTC
Wind: from the SSE (160 degrees) at 6 MPH (5 KT) gusting to 20 MPH (17 KT):0
Visibility: 10 mile(s):0
Sky conditions: clear
Temperature: 53.1 F (11.7 C)
Dew Point: 19.0 F (-7.2 C)
Relative Humidity: 25%
Pressure (altimeter): 30.07 in. Hg (1018 hPa)
ob: KBIH 200656Z AUTO 16005G17KT 10SM CLR 12/M07 A3007 RMK AO2 SLP154 T01171072
cycle: 7

Station Type Date Time Source
KBIH TAF 2021/10/20 06:22 UTC NOAA

TAF KBIH 200520Z 2006/2106 17008KT P6SM BKN200
FM200900 34006KT P6SM BKN200
FM202000 17007KT P6SM BKN200

Example: see airport list